Alton, IL (62002)

4:39 AM CDT on July 25, 2016 (GMT -0500)
Alton Amtrak | | Change Station

Elev 489 ft 38.91 °N, 90.14 °W | Updated 23 seconds ago

Light Thunderstorms and Rain
Light Thunderstorm Rain
72.1 °F
Feels Like 72.1 °F
N
0.7
Wind Variable Wind from East
Gusts 0.7 mph

Today
High -- | Low -- °F
--% Chance of Precip.
Yesterday
High -- | Low -- °F
Precip. -- in
Pressure 30.09 in
Visibility 10.0 miles
Clouds Mostly Cloudy 900 ft
Mostly Cloudy 2400 ft
Overcast 6000 ft
Dew Point 72 °F
Humidity 100%
Rainfall 0.65 in
Snow Depth Not available.
5:56 AM 8:17 PM
Waning Gibbous, 67% visible
METAR KALN 250915Z AUTO 32005KT 10SM -TSRA BKN009 BKN024 OVC060 22/22 A3009 RMK AO2 LTG DSNT ALQS T02210215
Pressure 30.09 in
Visibility 10.0 miles
Clouds Mostly Cloudy 900 ft
Mostly Cloudy 2400 ft
Overcast 6000 ft
Dew Point 72 °F
Humidity 100%
Rainfall 0.65 in
Snow Depth Not available.
5:56 AM 8:17 PM
Waning Gibbous, 67% visible
METAR KALN 250915Z AUTO 32005KT 10SM -TSRA BKN009 BKN024 OVC060 22/22 A3009 RMK AO2 LTG DSNT ALQS T02210215

10-Day Weather Forecast

Almanac

Astronomy

Jul. 25, 2016 Rise Set
Actual Time
Civil Twilight
Nautical Twilight
Astronomical Twilight
Moon
Length of Visible Light
Length of Day
Tomorrow will be .
, % of the Moon is Illuminated

Today's Extremes

State Highs State Lows

Community

WunderPhotos

Upload Photos

1,927,289 photos uploaded!

WunderBlog® & News

Nearby

Air Quality

  Air Quality AQ Index Pollutant
Not available.

Snow Depth

Station Depth Elevation

Earthquake Activity

City Distance Mag. Time & Date
Minimum magnitude displayed is 2.5.

Coastal Water Temperatures

Place Temperature

Stations

Nearby Weather Stations

Station Location Temp. Windchill Dew Point Humidity Wind Precip. Elev Updated Type
                   

Watches & Warnings

There are currently no watches in effect.